Time;durP1;ratioP1;P1;durP2;ratioP2;P2;SDS_P1;SDS_P2;PMS_P1;PMS_P2;Temp;Humidity;BMP_temperature;BMP_pressure;BME280_temperature;BME280_humidity;BME280_pressure;Samples;Min_cycle;Max_cycle;Signal;HPM_P1;HPM_P2
2023/07/06 00:01:03;;;;;;;2.67;2.17;;;17.60;91.00;;;;;;4892874;29;20183;-64
2023/07/06 00:03:31;;;;;;;3.47;2.58;;;17.70;91.10;;;;;;4893612;29;20365;-64
2023/07/06 00:05:58;;;;;;;2.50;2.30;;;17.70;91.20;;;;;;4891011;29;20968;-64
2023/07/06 00:08:23;;;;;;;3.28;2.20;;;17.60;91.30;;;;;;4892517;29;20195;-64
2023/07/06 00:10:49;;;;;;;2.90;2.13;;;17.50;91.40;;;;;;4893694;29;20197;-64
2023/07/06 00:13:16;;;;;;;2.60;2.40;;;17.70;91.40;;;;;;4891479;29;20722;-65
2023/07/06 00:15:42;;;;;;;3.67;2.25;;;17.60;91.60;;;;;;4893741;29;20514;-64
2023/07/06 00:18:09;;;;;;;2.33;2.13;;;17.70;91.80;;;;;;4887699;29;20556;-65
2023/07/06 00:20:37;;;;;;;3.40;2.92;;;17.50;91.90;;;;;;4886212;29;20865;-64
2023/07/06 00:23:08;;;;;;;2.35;1.90;;;17.60;92.10;;;;;;4895592;29;20217;-65
2023/07/06 00:25:34;;;;;;;3.00;2.30;;;17.40;92.50;;;;;;4896189;29;20596;-64
2023/07/06 00:28:03;;;;;;;2.65;2.30;;;17.10;93.40;;;;;;4890835;29;20915;-64
2023/07/06 00:33:14;;;;;;;2.40;2.20;;;17.00;92.50;;;;;;4893616;29;20237;-64
2023/07/06 00:35:43;;;;;;;3.40;2.22;;;17.40;93.10;;;;;;4893797;29;20251;-64
2023/07/06 00:38:12;;;;;;;2.60;2.40;;;17.20;93.00;;;;;;4892449;29;20282;-63
2023/07/06 00:40:43;;;;;;;3.03;2.35;;;17.10;93.30;;;;;;4895329;29;20750;-63
2023/07/06 00:43:10;;;;;;;3.22;2.70;;;17.20;93.20;;;;;;4893638;29;20211;-63
2023/07/06 00:45:37;;;;;;;3.13;2.30;;;17.00;93.40;;;;;;4895069;29;20669;-63
2023/07/06 00:48:06;;;;;;;4.03;2.20;;;17.00;93.30;;;;;;4894206;29;20656;-63
2023/07/06 00:50:32;;;;;;;4.60;2.40;;;16.90;93.50;;;;;;4890168;29;20187;-64
2023/07/06 00:53:03;;;;;;;2.58;2.10;;;16.80;93.20;;;;;;4905344;29;20672;-64
2023/07/06 00:55:41;;;;;;;4.70;2.38;;;17.00;93.70;;;;;;4891499;29;20214;-64
2023/07/06 00:58:15;;;;;;;3.28;2.40;;;17.20;93.90;;;;;;4890574;29;20211;-63
2023/07/06 01:00:44;;;;;;;2.90;2.42;;;16.90;93.90;;;;;;4891625;29;20217;-63
2023/07/06 01:03:09;;;;;;;2.65;1.98;;;16.80;93.90;;;;;;4891312;29;20217;-64
2023/07/06 01:05:38;;;;;;;2.60;2.40;;;16.90;94.00;;;;;;4891902;29;20202;-64
2023/07/06 01:08:11;;;;;;;2.60;2.38;;;17.00;94.30;;;;;;4890035;29;20191;-63
2023/07/06 01:10:39;;;;;;;2.65;2.38;;;17.00;94.40;;;;;;4891490;29;20179;-63
2023/07/06 01:13:07;;;;;;;2.80;2.47;;;16.90;94.00;;;;;;4891763;29;20289;-63
2023/07/06 01:15:38;;;;;;;3.00;2.70;;;17.10;94.50;;;;;;4893270;29;20282;-63
2023/07/06 01:18:10;;;;;;;5.78;2.85;;;16.90;94.50;;;;;;4890172;29;20274;-63
2023/07/06 01:21:11;;;;;;;3.45;2.45;;;17.10;94.90;;;;;;4891755;29;20186;-64
2023/07/06 01:23:55;;;;;;;2.47;2.28;;;16.80;95.00;;;;;;4878782;29;20220;-63
2023/07/06 01:26:34;;;;;;;3.55;2.22;;;16.70;95.20;;;;;;4888009;29;20743;-63
2023/07/06 01:29:02;;;;;;;4.63;2.45;;;16.60;95.80;;;;;;4888926;29;20217;-64
2023/07/06 01:31:51;;;;;;;3.30;2.20;;;16.60;95.90;;;;;;4896622;29;20198;-64
2023/07/06 01:34:17;;;;;;;2.83;2.40;;;16.80;95.90;;;;;;4892155;29;20194;-64
2023/07/06 01:36:52;;;;;;;2.93;2.57;;;16.80;95.60;;;;;;4890049;29;20186;-63
2023/07/06 01:39:21;;;;;;;2.55;2.35;;;16.70;95.40;;;;;;4892179;29;20187;-64
2023/07/06 01:42:10;;;;;;;2.45;2.25;;;16.60;95.10;;;;;;4892318;29;20246;-63
2023/07/06 01:44:37;;;;;;;3.50;2.50;;;16.60;95.50;;;;;;4889510;29;20590;-64
2023/07/06 01:47:03;;;;;;;3.45;2.70;;;16.60;95.60;;;;;;4890050;29;20758;-64
2023/07/06 01:49:30;;;;;;;2.33;2.13;;;16.70;95.80;;;;;;4890575;29;20191;-64
2023/07/06 01:52:05;;;;;;;3.47;2.60;;;16.50;95.80;;;;;;4890651;29;20218;-64
2023/07/06 01:54:58;;;;;;;2.60;2.30;;;16.50;96.10;;;;;;4890775;29;20211;-63
2023/07/06 01:57:59;;;;;;;3.85;2.35;;;16.70;96.20;;;;;;4891413;29;20806;-63
2023/07/06 02:00:27;;;;;;;2.30;2.00;;;16.50;96.20;;;;;;4891409;29;20243;-63
2023/07/06 02:02:54;;;;;;;2.50;2.30;;;16.30;95.80;;;;;;4891859;29;20254;-63
2023/07/06 02:05:21;;;;;;;2.83;2.50;;;16.30;96.10;;;;;;4889809;29;20187;-63
2023/07/06 02:07:49;;;;;;;3.38;2.50;;;16.30;96.60;;;;;;4883580;29;20195;-63
2023/07/06 02:10:16;;;;;;;2.90;2.60;;;16.40;96.90;;;;;;4894543;29;20541;-63
2023/07/06 02:12:47;;;;;;;2.50;2.20;;;16.20;96.90;;;;;;4890770;29;20222;-63
2023/07/06 02:15:19;;;;;;;2.78;2.28;;;16.20;97.00;;;;;;4893321;29;20203;-64
2023/07/06 02:17:46;;;;;;;2.97;2.30;;;16.10;97.10;;;;;;4895664;29;20210;-63
2023/07/06 02:20:15;;;;;;;2.60;2.40;;;16.10;97.40;;;;;;4890539;29;20234;-64
2023/07/06 02:22:41;;;;;;;3.10;2.80;;;16.10;97.70;;;;;;4896955;29;20230;-63
2023/07/06 02:25:07;;;;;;;2.85;2.20;;;15.90;97.90;;;;;;4898289;29;20195;-63
2023/07/06 02:27:32;;;;;;;2.60;2.35;;;15.90;98.00;;;;;;4895348;29;20186;-63
2023/07/06 02:30:01;;;;;;;3.83;2.50;;;16.00;98.30;;;;;;4900286;29;20187;-63
2023/07/06 02:32:27;;;;;;;2.45;2.10;;;15.80;98.20;;;;;;4896871;29;20716;-64
2023/07/06 02:34:54;;;;;;;3.17;2.40;;;15.90;98.60;;;;;;4898487;29;20238;-63
2023/07/06 02:37:19;;;;;;;5.47;2.50;;;15.60;98.80;;;;;;4892485;29;20187;-64
2023/07/06 02:39:45;;;;;;;2.70;2.50;;;15.70;99.40;;;;;;4895579;29;20197;-63
2023/07/06 02:42:14;;;;;;;2.87;2.57;;;15.60;98.70;;;;;;4894565;29;20214;-64
2023/07/06 02:44:40;;;;;;;3.17;2.83;;;15.90;99.10;;;;;;4894356;29;20191;-64
2023/07/06 02:47:10;;;;;;;2.90;2.60;;;15.80;99.20;;;;;;4895470;29;20182;-64
2023/07/06 02:49:36;;;;;;;2.60;2.38;;;15.80;99.30;;;;;;4895240;29;20213;-63
2023/07/06 02:52:02;;;;;;;2.63;2.42;;;15.70;99.20;;;;;;4895008;29;20207;-63
2023/07/06 02:54:28;;;;;;;2.70;2.50;;;15.80;99.60;;;;;;4895115;29;20179;-63
2023/07/06 02:56:55;;;;;;;2.73;2.40;;;15.70;99.50;;;;;;4894077;29;20351;-63
2023/07/06 02:59:21;;;;;;;3.13;2.65;;;15.80;99.90;;;;;;4892055;29;20854;-64
2023/07/06 03:01:47;;;;;;;3.47;2.97;;;15.80;99.60;;;;;;4894933;29;20198;-63
2023/07/06 03:04:12;;;;;;;3.20;2.50;;;15.80;99.90;;;;;;4894757;29;20270;-64
2023/07/06 03:06:39;;;;;;;4.10;2.40;;;15.80;99.90;;;;;;4893280;29;20215;-64
2023/07/06 03:09:07;;;;;;;4.13;2.90;;;15.70;99.90;;;;;;4894411;29;20201;-64
2023/07/06 03:11:33;;;;;;;3.97;2.85;;;15.90;99.90;;;;;;4894650;29;20202;-64
2023/07/06 03:14:00;;;;;;;3.05;2.63;;;15.80;99.90;;;;;;4891153;29;20343;-64
2023/07/06 03:16:27;;;;;;;4.10;3.00;;;15.90;99.90;;;;;;4894277;29;20184;-64
2023/07/06 03:18:52;;;;;;;4.72;3.10;;;15.70;99.90;;;;;;4894530;29;20203;-64
2023/07/06 03:21:20;;;;;;;4.40;2.73;;;15.70;99.90;;;;;;4895937;29;20195;-64
2023/07/06 03:23:46;;;;;;;4.10;2.92;;;15.90;99.90;;;;;;4889883;29;20215;-64
2023/07/06 03:26:13;;;;;;;3.05;2.50;;;15.40;99.90;;;;;;4894754;29;20194;-64
2023/07/06 03:28:40;;;;;;;3.25;2.88;;;15.30;99.90;;;;;;4893120;29;20560;-64
2023/07/06 03:31:06;;;;;;;5.43;2.85;;;15.50;99.90;;;;;;4895237;29;20250;-65
2023/07/06 03:33:32;;;;;;;3.30;2.67;;;15.30;99.90;;;;;;4892092;29;20693;-64
2023/07/06 03:35:58;;;;;;;3.30;3.00;;;15.40;99.90;;;;;;4894677;29;20475;-63
2023/07/06 03:38:25;;;;;;;3.33;2.58;;;15.30;99.90;;;;;;4893630;29;20186;-65
2023/07/06 03:40:52;;;;;;;3.30;2.55;;;15.20;99.90;;;;;;4893214;29;20198;-64
2023/07/06 03:43:19;;;;;;;3.72;3.17;;;15.20;99.90;;;;;;4890491;29;20207;-64
2023/07/06 03:45:48;;;;;;;4.47;2.63;;;15.10;99.90;;;;;;4894258;29;20366;-64
2023/07/06 03:48:15;;;;;;;3.20;2.90;;;15.40;99.90;;;;;;4893027;29;20187;-65
2023/07/06 03:50:43;;;;;;;3.40;2.83;;;15.00;99.90;;;;;;4892963;29;20222;-64
2023/07/06 03:53:09;;;;;;;4.30;3.90;;;15.30;99.90;;;;;;4892401;29;20218;-64
2023/07/06 03:55:35;;;;;;;3.47;2.55;;;15.30;99.90;;;;;;4895123;29;20273;-64
2023/07/06 03:58:01;;;;;;;4.10;3.70;;;15.20;99.90;;;;;;4890750;29;20274;-64
2023/07/06 04:00:28;;;;;;;2.67;2.47;;;14.90;99.90;;;;;;4892676;29;20739;-65
2023/07/06 04:03:01;;;;;;;2.90;2.58;;;15.40;99.90;;;;;;4893464;29;20471;-64
2023/07/06 04:05:39;;;;;;;3.60;2.78;;;15.10;99.90;;;;;;4892295;29;20194;-64
2023/07/06 04:08:09;;;;;;;3.70;2.45;;;15.00;99.90;;;;;;4890740;29;20191;-65
2023/07/06 04:10:37;;;;;;;3.72;3.30;;;15.00;99.90;;;;;;4891752;29;20193;-69
2023/07/06 04:13:04;;;;;;;3.08;2.70;;;14.90;99.90;;;;;;4891988;29;20214;-69
2023/07/06 04:15:31;;;;;;;3.45;3.15;;;15.00;99.90;;;;;;4891444;29;20187;-69
2023/07/06 04:17:56;;;;;;;4.57;3.30;;;15.10;99.90;;;;;;4889228;29;20218;-66
2023/07/06 04:20:28;;;;;;;3.60;2.90;;;15.30;99.90;;;;;;4893331;29;20234;-67
2023/07/06 04:22:55;;;;;;;2.63;2.40;;;15.10;99.90;;;;;;4890234;29;20214;-66
2023/07/06 04:25:26;;;;;;;3.00;2.80;;;15.30;99.90;;;;;;4890808;29;20200;-66
2023/07/06 04:27:52;;;;;;;3.28;2.80;;;15.20;99.90;;;;;;4889840;29;20203;-71
2023/07/06 04:30:20;;;;;;;3.00;2.80;;;15.30;99.90;;;;;;4891149;29;20182;-66
2023/07/06 04:32:48;;;;;;;3.35;2.78;;;15.30;99.90;;;;;;4891211;29;20483;-67
2023/07/06 04:35:19;;;;;;;3.53;2.90;;;15.30;99.90;;;;;;4892560;29;20696;-66
2023/07/06 04:37:45;;;;;;;6.50;3.03;;;15.50;99.90;;;;;;4887786;29;20195;-66
2023/07/06 04:40:13;;;;;;;3.10;2.80;;;15.50;99.90;;;;;;4889268;29;20541;-69
2023/07/06 04:42:40;;;;;;;3.33;2.53;;;15.40;99.90;;;;;;4888234;29;20211;-67
2023/07/06 04:45:09;;;;;;;3.55;3.25;;;15.70;99.90;;;;;;4887185;29;20278;-68
2023/07/06 04:47:38;;;;;;;6.03;3.05;;;16.00;99.90;;;;;;4891247;29;20251;-66
2023/07/06 04:50:06;;;;;;;3.30;3.00;;;15.80;99.90;;;;;;4891078;29;20254;-67
2023/07/06 04:52:33;;;;;;;4.68;3.15;;;16.30;99.90;;;;;;4889954;29;20223;-71
2023/07/06 04:54:59;;;;;;;3.67;3.22;;;15.90;99.90;;;;;;4892783;29;20186;-66
2023/07/06 04:57:25;;;;;;;3.23;2.67;;;;;;;;;;4890805;29;20194;-73
2023/07/06 04:59:51;;;;;;;3.58;2.80;;;16.10;99.70;;;;;;4892746;29;20183;-69
2023/07/06 05:02:17;;;;;;;7.53;3.50;;;16.00;99.50;;;;;;4893459;29;20331;-69
2023/07/06 05:04:43;;;;;;;3.73;2.80;;;16.30;99.90;;;;;;4893233;29;20220;-70
2023/07/06 05:07:11;;;;;;;3.90;3.07;;;16.40;99.70;;;;;;4891219;29;20444;-66
2023/07/06 05:09:40;;;;;;;3.47;3.17;;;16.50;99.40;;;;;;4891803;29;20443;-68
2023/07/06 05:12:07;;;;;;;4.00;2.80;;;16.70;98.70;;;;;;4892494;29;20218;-66
2023/07/06 05:14:34;;;;;;;3.45;3.03;;;16.50;98.90;;;;;;4888113;29;20193;-67
2023/07/06 05:17:00;;;;;;;6.75;3.33;;;16.60;98.70;;;;;;4894323;29;20214;-69
2023/07/06 05:19:27;;;;;;;4.18;3.17;;;16.90;98.50;;;;;;4891926;29;20229;-65
2023/07/06 05:21:55;;;;;;;6.85;4.68;;;17.00;97.90;;;;;;4892058;29;20223;-65
2023/07/06 05:24:21;;;;;;;8.43;7.40;;;16.90;98.10;;;;;;4888386;29;20242;-65
2023/07/06 05:26:47;;;;;;;6.65;5.10;;;16.80;97.90;;;;;;4891732;29;20187;-65
2023/07/06 05:29:12;;;;;;;3.50;3.20;;;17.20;98.10;;;;;;4889535;29;20215;-67
2023/07/06 05:31:38;;;;;;;3.20;2.70;;;17.20;97.60;;;;;;4889370;29;20191;-65
2023/07/06 05:34:04;;;;;;;3.50;3.20;;;17.30;97.60;;;;;;4890518;29;20226;-67
2023/07/06 05:36:29;;;;;;;5.43;4.10;;;17.30;97.20;;;;;;4887367;29;20198;-64
2023/07/06 05:38:55;;;;;;;3.87;3.20;;;17.50;97.10;;;;;;4887949;29;20251;-70
2023/07/06 05:41:20;;;;;;;11.33;8.53;;;17.60;96.70;;;;;;4888948;29;20198;-68
2023/07/06 05:43:46;;;;;;;4.10;3.07;;;17.70;96.50;;;;;;4888369;29;20218;-66
2023/07/06 05:46:11;;;;;;;5.37;2.70;;;17.80;96.20;;;;;;4890911;29;20195;-69
2023/07/06 05:48:37;;;;;;;5.17;2.80;;;18.10;96.00;;;;;;4886251;29;20197;-66
2023/07/06 05:51:03;;;;;;;3.63;3.27;;;18.20;95.70;;;;;;4877834;29;20211;-67
2023/07/06 05:53:28;;;;;;;4.97;3.40;;;18.30;95.10;;;;;;4889476;29;20215;-66
2023/07/06 05:55:54;;;;;;;4.30;3.10;;;18.40;94.70;;;;;;4889307;29;20194;-73
2023/07/06 05:58:20;;;;;;;6.10;4.20;;;18.50;94.30;;;;;;4894790;29;20186;-67
2023/07/06 06:00:45;;;;;;;10.87;8.67;;;18.50;94.20;;;;;;4894920;29;21146;-71
2023/07/06 06:03:11;;;;;;;4.73;4.13;;;18.60;93.70;;;;;;4893857;29;20210;-65
2023/07/06 06:05:39;;;;;;;4.97;3.07;;;18.60;93.60;;;;;;4895580;29;20195;-65
2023/07/06 06:08:05;;;;;;;3.38;3.08;;;18.80;93.60;;;;;;4890380;29;20443;-67
2023/07/06 06:10:31;;;;;;;5.13;3.27;;;18.80;93.50;;;;;;4892397;29;20194;-65
2023/07/06 06:12:57;;;;;;;3.37;2.43;;;18.90;93.50;;;;;;4891085;29;20222;-64
2023/07/06 06:15:23;;;;;;;3.40;3.05;;;19.00;93.10;;;;;;4892238;29;20195;-64
2023/07/06 06:17:50;;;;;;;3.37;2.93;;;19.10;92.70;;;;;;4894368;29;20202;-67
2023/07/06 06:20:16;;;;;;;4.35;3.60;;;19.20;93.30;;;;;;4892197;29;20688;-68
2023/07/06 06:22:41;;;;;;;8.07;3.40;;;19.30;93.20;;;;;;4891189;29;20289;-67
2023/07/06 06:25:07;;;;;;;7.13;3.60;;;19.40;92.90;;;;;;4893279;29;20447;-68
2023/07/06 06:27:33;;;;;;;4.70;3.00;;;19.50;93.10;;;;;;4890872;29;20258;-67
2023/07/06 06:29:59;;;;;;;4.43;3.30;;;19.50;92.90;;;;;;4895755;29;20514;-71
2023/07/06 06:32:25;;;;;;;5.17;3.30;;;19.60;91.60;;;;;;4888535;29;20338;-69
2023/07/06 06:34:52;;;;;;;4.13;3.47;;;19.60;91.70;;;;;;4892890;29;20883;-66
2023/07/06 06:37:17;;;;;;;3.60;3.30;;;19.70;91.60;;;;;;4892754;29;20192;-63
2023/07/06 06:39:43;;;;;;;4.23;3.13;;;19.80;91.40;;;;;;4893982;29;20191;-72
2023/07/06 06:42:13;;;;;;;5.00;3.37;;;19.90;91.30;;;;;;4892899;29;20238;-71
2023/07/06 06:44:39;;;;;;;5.15;3.00;;;20.00;91.10;;;;;;4891598;29;20197;-70
2023/07/06 06:47:05;;;;;;;4.20;2.67;;;20.10;90.40;;;;;;4895728;29;20234;-72
2023/07/06 06:49:33;;;;;;;4.80;3.10;;;20.10;88.90;;;;;;4891632;29;20187;-71
2023/07/06 06:52:01;;;;;;;3.58;2.58;;;20.20;87.90;;;;;;4887393;29;20210;-71
2023/07/06 06:54:28;;;;;;;3.60;2.97;;;20.30;88.80;;;;;;4892829;29;20273;-72
2023/07/06 06:56:53;;;;;;;4.82;3.20;;;20.40;88.80;;;;;;4893574;29;20219;-64
2023/07/06 06:59:19;;;;;;;3.53;2.90;;;20.60;88.00;;;;;;4884406;29;20265;-64
2023/07/06 07:01:46;;;;;;;4.80;2.83;;;;;;;;;;4893554;29;20193;-61
2023/07/06 07:04:11;;;;;;;5.25;3.00;;;20.70;85.00;;;;;;4892980;29;20284;-64
2023/07/06 07:06:40;;;;;;;2.87;2.63;;;21.00;83.90;;;;;;4889135;29;20198;-66
2023/07/06 07:09:09;;;;;;;3.20;2.90;;;21.40;83.10;;;;;;4892000;29;20198;-68
2023/07/06 07:11:36;;;;;;;3.40;2.80;;;22.20;81.30;;;;;;4895507;29;20858;-67
2023/07/06 07:14:02;;;;;;;5.20;4.00;;;23.70;75.30;;;;;;4892554;29;20580;-64
2023/07/06 07:16:27;;;;;;;7.83;7.03;;;24.80;70.00;;;;;;4892809;29;20461;-66
2023/07/06 07:18:54;;;;;;;4.60;2.80;;;26.90;62.90;;;;;;4891317;29;20193;-75
2023/07/06 07:21:20;;;;;;;3.97;2.50;;;29.40;57.70;;;;;;4888292;29;20183;-70
2023/07/06 07:23:47;;;;;;;3.03;2.73;;;31.10;54.20;;;;;;4895787;29;20489;-65
2023/07/06 07:26:16;;;;;;;2.93;2.63;;;32.90;46.60;;;;;;4900141;29;20199;-67
2023/07/06 07:28:42;;;;;;;5.13;2.20;;;32.30;46.40;;;;;;4889500;29;20450;-67
2023/07/06 07:31:11;;;;;;;3.30;2.30;;;32.90;44.10;;;;;;4889995;29;20452;-67
2023/07/06 07:33:43;;;;;;;3.53;2.20;;;33.60;42.60;;;;;;4892971;29;20482;-67
2023/07/06 07:36:10;;;;;;;2.80;2.60;;;33.50;41.10;;;;;;4892116;29;20454;-69
2023/07/06 07:38:37;;;;;;;2.70;2.30;;;33.80;40.80;;;;;;4888867;29;20454;-67
2023/07/06 07:41:06;;;;;;;3.70;2.37;;;33.30;39.30;;;;;;4893547;29;20461;-70
2023/07/06 07:43:33;;;;;;;3.03;2.50;;;34.50;39.40;;;;;;4892363;29;20809;-70
2023/07/06 07:46:04;;;;;;;4.20;2.20;;;36.70;37.40;;;;;;4889754;29;20446;-70
2023/07/06 07:48:37;;;;;;;3.13;2.53;;;35.40;36.10;;;;;;4892624;29;20856;-67
2023/07/06 07:51:08;;;;;;;2.80;2.27;;;35.90;36.00;;;;;;4890313;29;20443;-70
2023/07/06 07:53:37;;;;;;;5.63;2.33;;;35.50;35.80;;;;;;4893113;29;20478;-72
2023/07/06 07:56:06;;;;;;;18.60;5.90;;;35.80;34.90;;;;;;4893103;29;20483;-66
2023/07/06 07:58:36;;;;;;;9.90;4.40;;;37.00;34.60;;;;;;4890237;29;20563;-65
2023/07/06 08:01:05;;;;;;;33.53;8.30;;;37.90;33.00;;;;;;4889203;29;20534;-65
2023/07/06 08:03:32;;;;;;;6.37;2.67;;;38.40;31.80;;;;;;4889374;29;20528;-66
2023/07/06 08:06:05;;;;;;;6.00;3.30;;;36.70;32.00;;;;;;4889967;29;20998;-67
2023/07/06 08:08:32;;;;;;;3.17;2.50;;;36.60;33.30;;;;;;4890640;29;20451;-68
2023/07/06 08:11:07;;;;;;;2.77;2.57;;;36.30;32.50;;;;;;4891213;29;20534;-68
2023/07/06 08:13:34;;;;;;;4.17;2.50;;;37.10;32.70;;;;;;4889209;29;20478;-67
2023/07/06 08:16:01;;;;;;;3.03;2.20;;;37.70;31.20;;;;;;4889743;29;20482;-67
2023/07/06 08:18:27;;;;;;;4.33;2.97;;;38.10;31.40;;;;;;4891208;29;20530;-67
2023/07/06 08:20:56;;;;;;;2.33;2.13;;;37.60;31.60;;;;;;4888399;29;20511;-67
2023/07/06 08:23:23;;;;;;;4.13;2.50;;;38.40;31.00;;;;;;4890804;29;20972;-63
2023/07/06 08:25:51;;;;;;;2.70;2.50;;;38.00;30.30;;;;;;4890767;29;20459;-64
2023/07/06 08:28:20;;;;;;;2.70;2.50;;;37.30;30.90;;;;;;4883898;29;20518;-64
2023/07/06 08:30:46;;;;;;;3.70;2.53;;;38.00;30.80;;;;;;4889094;29;20447;-70
2023/07/06 08:33:13;;;;;;;2.33;2.07;;;37.80;30.30;;;;;;4889959;29;20486;-71
2023/07/06 08:35:44;;;;;;;3.13;2.37;;;38.20;30.10;;;;;;4895975;29;20451;-70
2023/07/06 08:38:10;;;;;;;2.50;2.20;;;38.30;30.00;;;;;;4891243;29;20470;-74
2023/07/06 08:40:36;;;;;;;2.63;2.43;;;38.00;30.00;;;;;;4892678;29;20459;-73
2023/07/06 08:43:04;;;;;;;3.17;2.57;;;36.10;31.40;;;;;;4890939;29;20483;-71
2023/07/06 08:45:43;;;;;;;3.00;2.73;;;35.20;32.60;;;;;;4889121;29;20183;-70
2023/07/06 08:48:12;;;;;;;5.37;3.00;;;35.80;32.50;;;;;;4891257;29;20455;-69
2023/07/06 08:50:40;;;;;;;5.03;2.67;;;35.70;32.00;;;;;;4889917;29;20455;-69
2023/07/06 08:53:11;;;;;;;2.90;2.70;;;36.20;31.10;;;;;;4892896;29;20514;-72
2023/07/06 08:55:37;;;;;;;2.90;2.70;;;37.10;30.80;;;;;;4889694;29;20571;-69
2023/07/06 08:58:03;;;;;;;2.60;2.40;;;37.30;30.10;;;;;;4889737;29;20533;-72
2023/07/06 09:00:31;;;;;;;2.47;2.23;;;36.70;29.90;;;;;;4896983;29;20183;-73
2023/07/06 09:03:08;;;;;;;2.97;2.67;;;36.30;31.70;;;;;;4894831;29;20459;-73
2023/07/06 09:05:43;;;;;;;3.10;2.90;;;35.90;30.90;;;;;;4890729;29;20523;-72
2023/07/06 09:08:13;;;;;;;3.23;2.93;;;33.20;32.10;;;;;;4887070;29;20468;-70
2023/07/06 09:10:39;;;;;;;2.50;2.30;;;31.70;35.00;;;;;;4888271;29;20453;-70
2023/07/06 09:13:24;;;;;;;3.17;2.40;;;32.00;35.80;;;;;;4888757;29;20500;-67
2023/07/06 09:16:00;;;;;;;2.73;2.53;;;33.10;34.40;;;;;;4889835;29;20179;-66
2023/07/06 09:18:28;;;;;;;3.40;3.10;;;34.00;32.60;;;;;;4891205;29;20486;-67
2023/07/06 09:20:56;;;;;;;2.67;2.47;;;34.80;33.10;;;;;;4889110;29;20439;-67
2023/07/06 09:23:21;;;;;;;3.30;3.00;;;35.20;31.90;;;;;;4890310;29;20470;-63
2023/07/06 09:25:48;;;;;;;4.33;2.83;;;34.60;32.10;;;;;;4888798;29;20451;-63
2023/07/06 09:28:20;;;;;;;3.20;2.90;;;35.20;31.90;;;;;;4889825;29;20191;-64
2023/07/06 09:30:48;;;;;;;3.40;3.10;;;36.70;31.10;;;;;;4890434;29;21031;-65
2023/07/06 09:33:24;;;;;;;3.30;3.00;;;37.50;29.70;;;;;;4892337;29;20553;-73
2023/07/06 09:35:57;;;;;;;2.50;2.30;;;37.20;29.00;;;;;;4898281;29;20486;-75
2023/07/06 09:38:25;;;;;;;3.00;2.50;;;37.30;28.40;;;;;;4893702;29;20454;-76
2023/07/06 09:40:52;;;;;;;4.07;2.57;;;36.30;28.80;;;;;;4892361;29;20447;-71
2023/07/06 09:43:23;;;;;;;3.37;2.80;;;36.30;29.70;;;;;;4892975;29;20502;-70
2023/07/06 09:45:51;;;;;;;6.07;4.50;;;35.00;30.00;;;;;;4891690;29;20850;-72
2023/07/06 09:48:30;;;;;;;3.07;2.77;;;34.00;31.60;;;;;;4890724;29;20468;-75
2023/07/06 09:51:23;;;;;;;4.97;2.53;;;32.60;32.30;;;;;;4890442;29;20455;-74
2023/07/06 09:54:06;;;;;;;3.03;2.73;;;31.80;34.10;;;;;;4894884;29;20483;-75
2023/07/06 09:56:32;;;;;;;3.30;2.70;;;31.70;34.30;;;;;;4888143;29;20842;-73
2023/07/06 09:59:00;;;;;;;2.87;2.60;;;32.90;33.80;;;;;;4904789;29;20487;-72
2023/07/06 10:01:50;;;;;;;2.93;2.50;;;34.60;32.10;;;;;;4886459;29;20503;-68
2023/07/06 10:04:28;;;;;;;4.00;2.57;;;35.40;31.30;;;;;;4890409;29;20444;-68
2023/07/06 10:07:25;;;;;;;3.10;2.80;;;36.70;29.90;;;;;;4889171;29;20513;-68
2023/07/06 10:10:32;;;;;;;4.00;2.77;;;37.40;29.10;;;;;;4890962;29;20443;-68
2023/07/06 10:13:26;;;;;;;2.70;2.50;;;37.20;28.70;;;;;;4854957;29;21234;-67
2023/07/06 10:16:18;;;;;;;4.47;3.10;;;37.20;28.70;;;;;;4892885;29;20447;-67
2023/07/06 10:19:01;;;;;;;2.70;2.47;;;36.30;29.10;;;;;;4888905;29;20979;-69
2023/07/06 10:21:40;;;;;;;2.77;2.57;;;37.00;28.90;;;;;;4891958;29;20443;-69
2023/07/06 10:24:33;;;;;;;3.97;2.77;;;37.20;28.60;;;;;;4891733;29;20489;-67
2023/07/06 10:27:02;;;;;;;3.07;2.77;;;36.10;29.00;;;;;;4894356;29;20447;-68
2023/07/06 10:29:51;;;;;;;3.53;2.97;;;34.90;28.90;;;;;;4891957;29;20446;-67
2023/07/06 10:32:25;;;;;;;3.70;2.77;;;33.10;30.70;;;;;;4878944;29;20997;-72
2023/07/06 10:35:11;;;;;;;3.57;2.70;;;31.80;32.80;;;;;;4891706;29;21008;-67
2023/07/06 10:37:39;;;;;;;2.57;2.37;;;32.50;33.60;;;;;;4885161;29;20937;-67
2023/07/06 10:40:24;;;;;;;2.80;2.60;;;33.40;32.50;;;;;;4889720;29;20454;-66
2023/07/06 10:43:13;;;;;;;3.70;2.90;;;33.50;32.50;;;;;;4886360;29;20471;-69
2023/07/06 10:45:52;;;;;;;2.73;2.53;;;33.90;31.70;;;;;;4875788;29;20461;-67
2023/07/06 10:48:21;;;;;;;2.87;2.67;;;34.40;30.90;;;;;;4890044;29;20457;-69
2023/07/06 10:51:12;;;;;;;3.00;2.80;;;33.90;31.70;;;;;;4885221;29;20974;-67
2023/07/06 10:53:43;;;;;;;3.33;3.03;;;34.00;32.20;;;;;;4888255;29;20486;-65
2023/07/06 10:56:17;;;;;;;3.40;2.60;;;35.10;31.20;;;;;;4889504;29;20490;-68
2023/07/06 10:59:01;;;;;;;3.07;2.73;;;34.10;31.00;;;;;;4889027;29;20447;-66
2023/07/06 11:01:37;;;;;;;3.27;2.47;;;34.70;30.50;;;;;;4892648;29;20450;-66
2023/07/06 11:04:39;;;;;;;3.40;3.10;;;35.90;30.10;;;;;;4886411;29;20577;-72
2023/07/06 11:07:27;;;;;;;2.83;2.63;;;36.20;29.10;;;;;;4890472;29;20625;-69
2023/07/06 11:10:31;;;;;;;3.33;2.93;;;35.50;29.90;;;;;;4889840;29;20459;-66
2023/07/06 11:13:01;;;;;;;2.83;2.63;;;33.60;31.30;;;;;;4873142;29;20560;-69
2023/07/06 11:15:48;;;;;;;2.70;2.50;;;31.90;33.90;;;;;;4890070;29;20455;-67
2023/07/06 11:18:26;;;;;;;2.93;2.70;;;31.70;34.20;;;;;;4890409;29;21080;-67
2023/07/06 11:20:59;;;;;;;4.70;3.10;;;31.20;34.50;;;;;;4888265;29;20456;-68
2023/07/06 11:24:07;;;;;;;3.23;2.93;;;30.10;35.90;;;;;;4889403;29;20479;-67
2023/07/06 11:26:51;;;;;;;7.83;6.60;;;29.20;37.30;;;;;;4889854;29;20460;-70
2023/07/06 11:29:22;;;;;;;7.00;3.10;;;28.60;38.90;;;;;;4889672;29;20456;-71
2023/07/06 11:31:58;;;;;;;4.23;2.83;;;30.10;36.50;;;;;;4888934;29;20498;-67
2023/07/06 11:34:49;;;;;;;7.17;3.80;;;30.00;36.80;;;;;;4889652;29;20466;-68
2023/07/06 11:37:32;;;;;;;3.00;2.70;;;30.70;36.60;;;;;;4888885;29;20461;-68
2023/07/06 11:40:32;;;;;;;2.63;2.43;;;31.90;35.70;;;;;;4890819;29;20454;-67
2023/07/06 11:43:22;;;;;;;2.80;2.53;;;32.00;34.20;;;;;;4888769;29;20477;-67
2023/07/06 11:46:14;;;;;;;2.87;2.30;;;31.40;34.90;;;;;;4888832;29;20516;-68
2023/07/06 11:49:23;;;;;;;2.97;2.67;;;30.70;35.20;;;;;;4887635;29;20476;-67
2023/07/06 11:51:50;;;;;;;2.83;2.20;;;29.30;36.30;;;;;;4886264;29;20458;-67
2023/07/06 12:02:56;;;;;;;2.97;2.57;;;27.40;40.70;;;;;;4890409;29;20472;-67
2023/07/06 12:05:32;;;;;;;7.43;3.80;;;27.80;41.10;;;;;;4892124;29;21694;-64
2023/07/06 12:08:09;;;;;;;3.13;2.60;;;27.80;40.70;;;;;;4892143;29;20462;-67
2023/07/06 12:10:38;;;;;;;2.40;2.20;;;27.90;40.20;;;;;;4890050;29;20459;-61
2023/07/06 12:13:11;;;;;;;5.23;3.13;;;27.70;40.20;;;;;;4886064;29;20490;-61
2023/07/06 12:15:36;;;;;;;3.40;2.77;;;27.80;40.90;;;;;;4894435;29;20455;-61
2023/07/06 12:18:02;;;;;;;3.17;2.87;;;27.50;41.40;;;;;;4893094;29;20539;-61
2023/07/06 12:20:31;;;;;;;4.70;3.00;;;27.30;41.10;;;;;;4888145;29;20195;-61
2023/07/06 12:22:58;;;;;;;4.43;2.83;;;27.30;41.60;;;;;;4886030;29;20267;-61
2023/07/06 12:25:27;;;;;;;4.27;2.87;;;27.40;41.80;;;;;;4891865;29;20801;-61
2023/07/06 12:28:00;;;;;;;2.33;2.13;;;27.30;41.30;;;;;;4890627;29;21132;-62
2023/07/06 12:30:33;;;;;;;2.73;2.53;;;27.10;41.80;;;;;;4890877;29;20470;-65
2023/07/06 12:33:10;;;;;;;2.87;2.40;;;27.10;41.30;;;;;;4889740;29;20487;-71
2023/07/06 12:35:36;;;;;;;3.67;2.77;;;26.80;41.10;;;;;;4888012;29;20461;-68
2023/07/06 12:38:09;;;;;;;6.77;2.80;;;26.60;41.80;;;;;;4891314;29;20944;-68
2023/07/06 12:40:41;;;;;;;3.37;3.07;;;26.60;41.70;;;;;;4891399;29;20457;-73
2023/07/06 12:43:23;;;;;;;3.00;2.80;;;26.70;40.80;;;;;;4888890;29;20555;-69
2023/07/06 12:45:52;;;;;;;4.57;2.60;;;26.60;40.90;;;;;;4888719;29;21005;-67
2023/07/06 12:48:20;;;;;;;5.53;3.40;;;26.70;41.90;;;;;;4890025;29;20584;-66
2023/07/06 12:50:49;;;;;;;5.30;2.90;;;26.60;41.10;;;;;;4889079;29;20864;-63
2023/07/06 12:53:22;;;;;;;3.27;2.97;;;26.60;41.20;;;;;;4889964;29;20492;-64
2023/07/06 12:55:48;;;;;;;2.90;2.50;;;26.70;41.40;;;;;;4892307;29;20455;-73
2023/07/06 12:58:28;;;;;;;3.13;2.50;;;26.80;41.90;;;;;;4889059;29;20465;-68
2023/07/06 13:01:13;;;;;;;3.00;2.70;;;26.90;41.10;;;;;;4890366;29;21030;-69
2023/07/06 13:03:52;;;;;;;4.40;2.50;;;27.10;41.90;;;;;;4890323;29;20466;-70
2023/07/06 13:06:20;;;;;;;7.40;2.83;;;27.00;41.90;;;;;;4888400;29;20454;-68
2023/07/06 13:08:46;;;;;;;5.43;2.90;;;27.20;42.00;;;;;;4891037;29;20462;-66
2023/07/06 13:11:15;;;;;;;3.00;2.70;;;27.00;41.30;;;;;;4888825;29;20506;-66
2023/07/06 13:13:43;;;;;;;3.23;2.93;;;26.90;42.00;;;;;;4889858;29;20990;-65
2023/07/06 13:16:19;;;;;;;3.10;2.73;;;26.80;42.50;;;;;;4890819;29;20457;-63
2023/07/06 13:18:49;;;;;;;5.50;3.27;;;26.60;42.40;;;;;;4889386;29;21060;-65